Richardson's Hourly Summary for Saturday, July 7, 2018
Hour Temp
(f)
RH
(%)
Solar Rad.
(MJ/m2)
Rainfall
(in)
Wind
(mph)
7/7/2018 12:00 AM 79 65 0 0 3.12
7/7/2018 1:00 AM 79 66 0 0 1.65
7/7/2018 2:00 AM 77 77 0 0 0.78
7/7/2018 3:00 AM 75 81 0 0 0.92
7/7/2018 4:00 AM 74 86 0 0 1.74
7/7/2018 5:00 AM 73 88 0 0 1.94
7/7/2018 6:00 AM 72 89 0 0 3.29
7/7/2018 7:00 AM 72 86 0.05 0 2.31
7/7/2018 8:00 AM 74 76 0.52 0 1.74
7/7/2018 9:00 AM 78 69 1.17 0 2.33
7/7/2018 10:00 AM 80 65 1.83 0 3.67
7/7/2018 11:00 AM 83 57 2.44 0 3.64
7/7/2018 12:00 PM 86 54 2.77 0 3.7
7/7/2018 1:00 PM 88 47 3 0 4.18
7/7/2018 2:00 PM 89 45 2.88 0 4.39
7/7/2018 3:00 PM 91 39 3.03 0 4.94
7/7/2018 4:00 PM 92 35 2.44 0 4.62
7/7/2018 5:00 PM 94 32 2.47 0 4.86
7/7/2018 6:00 PM 93 33 1.75 0 6.08
7/7/2018 7:00 PM 90 38 1 0 5.58
7/7/2018 8:00 PM 90 40 0.19 0 5.13
7/7/2018 9:00 PM 88 42 0.03 0 3.31
7/7/2018 10:00 PM 85 48 0 0 4.5
7/7/2018 11:00 PM 84 54 0 0 3.05
Data Summary 82 58 25.57 0.00 3.39